Terminal Aerodrome Forecast
Issued by NWS Albany, NY

Home | Current Version | Previous Version | Text Only | Print | Product List | Glossary On
Versions: 1 2 3 4 5 6 7 8 9 10 11 12 13
000
FTUS41 KALY 302323
TAFPOU
TAF
KPOU 302323Z 3100/3124 00000KT P6SM VCSH OVC100
     FM310500 00000KT P6SM SCT100 SCT250
     FM310800 00000KT 3SM BR SKC
     FM311200 25003KT P6SM SCT250
     FM311600 27008KT P6SM SCT250=

USA.gov is the U.S. government's official web portal to all federal, state and local government web resources and services.